Route Details

Aircraft Information
Group: North America Fleet
Types: B738, B752, B762, B763
Route Data
Distance: 1170nm
Duration: 3h 25m
Origin METAR: CYEG 072300Z 18004KT 20SM FEW080 FEW180 BKN250 03/M02 A2974 RMK AC1AC1CI5 SLP105
Dest. METAR: KONT 072353Z 29005KT 10SM FEW250 20/M03 A3020 RMK AO2 SLP220 T02001033 10200 20167 56012
Freight Data
(for Feb 8, 2023)
Load Factor:
65%
Manifested Cargo: 81,085lbs
Financial History
Total Freight: 68,000lbs
Average Load: 0lbs/flt
Fuel Used: 27,129lbs
Avg. Fuel Used: 0lbs/flt
Fuel Expense: $12,208
Avg. Fuel Expense: $0
Avg. Fuel Cost: $0/lbs
Total Gross Income: $178,160
Pilot Pay: $269
Total Expenses: $35,576
Total Revenue: $128,957
Average Revenue: $0

Capitol Logistics 305




CYEG
Edmonton International Airport
Edmonton, CA
KONT
Ontario International Airport
Ontario, US

Activity Log

Date Flight Route Aircraft Duration
09/20/2022 CPX305 DCT OLIMI Q814 ADVOX DCT YYC J537 REO J7 FMG J5 EHF ZIGGY7 B752 3h 24m